Time;durP1;ratioP1;P1;durP2;ratioP2;P2;SDS_P1;SDS_P2;PMS_P1;PMS_P2;Temp;Humidity;BMP_temperature;BMP_pressure;BME280_temperature;BME280_humidity;BME280_pressure;Samples;Min_cycle;Max_cycle;Signal;HPM_P1;HPM_P2
2021/12/17 00:00:56;;;;;;;123.88;48.72;;;;;;;;;;5041024;28;20051;-71
2021/12/17 00:03:33;;;;;;;119.70;46.72;;;;;;;;;;5040749;28;20162;-72
2021/12/17 00:06:13;;;;;;;131.55;48.75;;;;;;;;;;5038498;28;20025;-71
2021/12/17 00:08:44;;;;;;;114.82;45.50;;;;;;;;;;5039846;28;20124;-71
2021/12/17 00:11:11;;;;;;;110.10;44.22;;;;;;;;;;5041130;28;20025;-72
2021/12/17 00:13:37;;;;;;;98.00;42.60;;;;;;;;;;5040491;28;20132;-72
2021/12/17 00:16:13;;;;;;;103.05;43.88;;;;;;;;;;5040863;28;20128;-71
2021/12/17 00:18:57;;;;;;;104.03;43.05;;;;;;;;;;5038883;28;20030;-70
2021/12/17 00:48:38;;;;;;;110.10;42.28;;;;;;;;;;5041734;28;20047;-70
2021/12/17 00:51:44;;;;;;;114.68;44.17;;;;;;;;;;5057202;28;20025;-70
2021/12/17 00:53:57;;;;;;;94.68;39.13;;;;;;;;;;5040376;28;20136;-71
2021/12/17 00:56:23;;;;;;;110.78;42.15;;;;;;;;;;5039089;28;20048;-72
2021/12/17 00:58:49;;;;;;;127.10;44.70;;;;;;;;;;5040404;28;20064;-71
2021/12/17 01:01:17;;;;;;;104.22;42.50;;;;;;;;;;5039089;28;20029;-71
2021/12/17 01:03:43;;;;;;;120.30;42.35;;;;;;;;;;5038017;28;20035;-71
2021/12/17 01:06:09;;;;;;;132.27;43.50;;;;;;;;;;5039690;28;20079;-72
2021/12/17 01:08:35;;;;;;;110.45;39.65;;;;;;;;;;5044899;28;20037;-71
2021/12/17 01:11:02;;;;;;;114.38;41.15;;;;;;;;;;5056360;28;20486;-71
2021/12/17 01:13:28;;;;;;;113.43;40.83;;;;;;;;;;5036507;28;20037;-72
2021/12/17 01:15:54;;;;;;;116.63;38.88;;;;;;;;;;5057319;28;21540;-71
2021/12/17 01:18:23;;;;;;;108.50;39.88;;;;;;;;;;5040287;28;20487;-71
2021/12/17 01:21:22;;;;;;;129.77;42.40;;;;;;;;;;5041678;28;20060;-72
2021/12/17 01:43:05;;;;;;;110.97;37.72;;;;;;;;;;5038190;28;20057;-71
2021/12/17 01:45:36;;;;;;;113.45;38.53;;;;;;;;;;5040418;28;20106;-70
2021/12/17 01:48:06;;;;;;;123.50;39.17;;;;;;;;;;5053594;28;20131;-70
2021/12/17 02:01:27;;;;;;;96.43;32.17;;;;;;;;;;5035631;28;20106;-71
2021/12/17 02:03:55;;;;;;;97.95;31.23;;;;;;;;;;5041155;28;20486;-71
2021/12/17 02:06:23;;;;;;;91.30;29.00;;;;;;;;;;5040351;28;20375;-69
2021/12/17 02:08:51;;;;;;;83.82;25.95;;;;;;;;;;5035822;28;20032;-69
2021/12/17 02:19:49;;;;;;;98.10;26.35;;;;;;;;;;5053147;28;20056;-70
2021/12/17 02:32:42;;;;;;;83.05;22.30;;;;;;;;;;5041770;28;20037;-70
2021/12/17 02:37:44;;;;;;;92.78;23.63;;;;;;;;;;5038751;28;20052;-69
2021/12/17 02:48:00;;;;;;;113.43;28.77;;;;;;;;;;5039828;28;20140;-69
2021/12/17 02:50:27;;;;;;;109.03;29.73;;;;;;;;;;5037542;28;20120;-69
2021/12/17 02:52:54;;;;;;;117.20;30.15;;;;;;;;;;5040046;28;20053;-69
2021/12/17 02:55:21;;;;;;;116.32;30.70;;;;;;;;;;5041516;28;20033;-69
2021/12/17 02:57:47;;;;;;;107.65;30.90;;;;;;;;;;5040458;28;20048;-71
2021/12/17 03:00:13;;;;;;;132.18;33.20;;;;;;;;;;5043446;28;20493;-69
2021/12/17 03:02:41;;;;;;;117.00;35.00;;;;;;;;;;5039366;28;20425;-71
2021/12/17 03:05:08;;;;;;;115.40;33.15;;;;;;;;;;5044900;28;20079;-70
2021/12/17 03:07:38;;;;;;;137.55;34.17;;;;;;;;;;5040942;28;20505;-70
2021/12/17 03:10:08;;;;;;;125.85;33.97;;;;;;;;;;5057417;28;20136;-70
2021/12/17 03:12:44;;;;;;;141.13;36.10;;;;;;;;;;5058865;28;20040;-70
2021/12/17 03:25:35;;;;;;;136.00;38.17;;;;;;;;;;5044574;28;20047;-69
2021/12/17 03:28:01;;;;;;;141.23;39.83;;;;;;;;;;5040956;28;20030;-71
2021/12/17 03:30:28;;;;;;;149.38;42.55;;;;;;;;;;5036941;28;20033;-71
2021/12/17 03:32:54;;;;;;;158.45;44.28;;;;;;;;;;5039906;28;20053;-71
2021/12/17 03:35:20;;;;;;;164.43;44.03;;;;;;;;;;5041844;28;20114;-71
2021/12/17 03:37:46;;;;;;;154.90;45.10;;;;;;;;;;5044810;28;20485;-71
2021/12/17 03:40:15;;;;;;;166.90;46.35;;;;;;;;;;5041817;28;20112;-68
2021/12/17 03:42:46;;;;;;;188.70;47.05;;;;;;;;;;5041299;28;20045;-70
2021/12/17 03:45:13;;;;;;;186.57;47.53;;;;;;;;;;5026906;28;20363;-71
2021/12/17 03:47:42;;;;;;;253.68;55.65;;;;;;;;;;5036796;28;20037;-71
2021/12/17 03:50:08;;;;;;;249.50;57.08;;;;;;;;;;5040480;28;20036;-71
2021/12/17 03:52:34;;;;;;;329.73;62.60;;;;;;;;;;5038562;28;20036;-69
2021/12/17 03:55:00;;;;;;;318.85;62.17;;;;;;;;;;5045999;28;20049;-71
2021/12/17 03:57:26;;;;;;;363.20;64.82;;;;;;;;;;5043697;28;20037;-71
2021/12/17 03:59:52;;;;;;;394.77;65.22;;;;;;;;;;5039080;28;20025;-70
2021/12/17 04:02:18;;;;;;;386.45;64.10;;;;;;;;;;5041981;28;20057;-69
2021/12/17 04:04:45;;;;;;;357.45;62.13;;;;;;;;;;5040870;28;20100;-70
2021/12/17 04:07:11;;;;;;;331.13;56.88;;;;;;;;;;5039077;28;20219;-69
2021/12/17 04:09:37;;;;;;;273.55;50.05;;;;;;;;;;5042524;28;20033;-71
2021/12/17 04:12:08;;;;;;;266.88;47.42;;;;;;;;;;5037077;28;20467;-70
2021/12/17 04:14:46;;;;;;;240.50;43.60;;;;;;;;;;5032359;28;20029;-70
2021/12/17 04:17:14;;;;;;;257.42;43.90;;;;;;;;;;5040551;28;20458;-71
2021/12/17 04:19:40;;;;;;;233.05;41.35;;;;;;;;;;5038119;28;20033;-70
2021/12/17 04:22:07;;;;;;;203.85;36.22;;;;;;;;;;5042137;28;20044;-70
2021/12/17 04:24:33;;;;;;;244.90;40.60;;;;;;;;;;5042026;28;20087;-69
2021/12/17 04:26:59;;;;;;;244.65;35.70;;;;;;;;;;5039529;28;20086;-70
2021/12/17 04:29:26;;;;;;;253.32;38.13;;;;;;;;;;5039446;28;20128;-70
2021/12/17 04:31:55;;;;;;;261.45;35.60;;;;;;;;;;5041862;28;20174;-70
2021/12/17 04:34:21;;;;;;;214.68;31.95;;;;;;;;;;5040279;28;20362;-71
2021/12/17 04:36:50;;;;;;;216.05;31.63;;;;;;;;;;5039249;28;20029;-70
2021/12/17 04:39:17;;;;;;;251.57;29.55;;;;;;;;;;5053536;28;20120;-70
2021/12/17 04:41:58;;;;;;;248.63;30.27;;;;;;;;;;5041195;28;20458;-70
2021/12/17 04:44:31;;;;;;;211.03;28.30;;;;;;;;;;5040052;28;20029;-71
2021/12/17 04:57:43;;;;;;;157.45;26.50;;;;;;;;;;5054693;28;21720;-70
2021/12/17 05:00:35;;;;;;;141.30;25.95;;;;;;;;;;5039163;28;20021;-70
2021/12/17 05:03:01;;;;;;;137.43;26.50;;;;;;;;;;5038767;28;20574;-70
2021/12/17 05:05:30;;;;;;;171.60;29.27;;;;;;;;;;5043033;28;20058;-70
2021/12/17 05:08:04;;;;;;;151.95;29.45;;;;;;;;;;5044014;28;20043;-70
2021/12/17 05:18:33;;;;;;;146.90;26.50;;;;;;;;;;5011117;28;20441;-70
2021/12/17 05:21:02;;;;;;;160.10;28.10;;;;;;;;;;5040869;28;20068;-70
2021/12/17 05:23:31;;;;;;;111.63;25.33;;;;;;;;;;5038653;28;20037;-70
2021/12/17 05:26:01;;;;;;;131.88;24.48;;;;;;;;;;5044458;28;20386;-70
2021/12/17 05:28:27;;;;;;;114.45;24.10;;;;;;;;;;5057547;28;20057;-69
2021/12/17 05:30:55;;;;;;;113.18;25.00;;;;;;;;;;5038107;28;20026;-72
2021/12/17 05:33:22;;;;;;;94.93;22.60;;;;;;;;;;5037539;28;20061;-71
2021/12/17 05:35:49;;;;;;;103.00;23.27;;;;;;;;;;5039596;28;20033;-71
2021/12/17 05:38:15;;;;;;;107.40;23.23;;;;;;;;;;5042124;28;20032;-71
2021/12/17 05:40:42;;;;;;;97.65;23.00;;;;;;;;;;5054976;28;20025;-70
2021/12/17 05:43:08;;;;;;;106.45;23.13;;;;;;;;;;5037639;28;20497;-69
2021/12/17 05:45:37;;;;;;;120.63;23.88;;;;;;;;;;5042246;28;20098;-70
2021/12/17 05:48:05;;;;;;;119.15;24.30;;;;;;;;;;5044989;28;20533;-70
2021/12/17 05:50:31;;;;;;;126.18;24.60;;;;;;;;;;5046932;28;20486;-70
2021/12/17 05:52:57;;;;;;;132.25;23.77;;;;;;;;;;5041222;28;20068;-70
2021/12/17 05:55:24;;;;;;;125.20;29.67;;;;;;;;;;5024309;28;20041;-70
2021/12/17 05:57:50;;;;;;;115.47;25.88;;;;;;;;;;5040662;28;20022;-69
2021/12/17 06:00:17;;;;;;;125.38;24.77;;;;;;;;;;5059878;28;20025;-70
2021/12/17 06:02:43;;;;;;;102.55;21.88;;;;;;;;;;5042252;28;20032;-70
2021/12/17 06:05:10;;;;;;;148.57;24.63;;;;;;;;;;5042964;28;20025;-69
2021/12/17 06:07:35;;;;;;;148.82;26.08;;;;;;;;;;5044601;28;20033;-71
2021/12/17 06:10:04;;;;;;;163.00;25.85;;;;;;;;;;5043231;28;20123;-71
2021/12/17 06:12:30;;;;;;;128.35;22.88;;;;;;;;;;5039026;28;20121;-72
2021/12/17 06:14:56;;;;;;;141.82;24.30;;;;;;;;;;5043132;28;20028;-72
2021/12/17 06:17:22;;;;;;;185.75;25.17;;;;;;;;;;5045143;28;20386;-72
2021/12/17 06:19:48;;;;;;;146.82;23.45;;;;;;;;;;5040337;28;20125;-70
2021/12/17 06:22:15;;;;;;;172.75;34.17;;;;;;;;;;5042442;28;20052;-71
2021/12/17 06:24:44;;;;;;;158.93;27.27;;;;;;;;;;5038826;28;20475;-72
2021/12/17 06:27:10;;;;;;;163.13;25.63;;;;;;;;;;5044186;28;20078;-70
2021/12/17 06:29:36;;;;;;;110.90;21.98;;;;;;;;;;5062920;28;20075;-70
2021/12/17 06:32:03;;;;;;;120.13;22.33;;;;;;;;;;5040206;28;20440;-70
2021/12/17 06:34:29;;;;;;;169.38;26.33;;;;;;;;;;5039819;28;20417;-70
2021/12/17 06:36:55;;;;;;;153.85;23.15;;;;;;;;;;5041545;28;20061;-70
2021/12/17 06:39:21;;;;;;;152.75;25.58;;;;;;;;;;5043268;28;20049;-72
2021/12/17 06:41:47;;;;;;;118.15;22.73;;;;;;;;;;5044588;28;20060;-70
2021/12/17 06:44:17;;;;;;;169.05;24.58;;;;;;;;;;5045094;28;20017;-69
2021/12/17 07:00:19;;;;;;;141.55;23.27;;;;;;;;;;5043936;28;20076;-70
2021/12/17 07:10:44;;;;;;;204.57;28.45;;;;;;;;;;5042569;28;20041;-70
2021/12/17 07:34:01;;;;;;;163.52;26.55;;;;;;;;;;5047180;28;20124;-70
2021/12/17 07:36:37;;;;;;;153.77;25.77;;;;;;;;;;5043304;28;20029;-71
2021/12/17 07:39:03;;;;;;;203.10;26.75;;;;;;;;;;5040664;28;20080;-72
2021/12/17 07:41:30;;;;;;;177.82;25.88;;;;;;;;;;5046937;28;20091;-71
2021/12/17 07:43:59;;;;;;;200.70;26.23;;;;;;;;;;5037061;28;20135;-71
2021/12/17 07:46:25;;;;;;;175.70;25.23;;;;;;;;;;5031456;28;20029;-70
2021/12/17 07:48:52;;;;;;;178.57;25.08;;;;;;;;;;5041738;28;20052;-71
2021/12/17 07:51:18;;;;;;;148.57;24.23;;;;;;;;;;5037210;28;20454;-71
2021/12/17 07:53:45;;;;;;;133.52;23.80;;;;;;;;;;5040225;28;20450;-71
2021/12/17 07:56:13;;;;;;;133.25;22.88;;;;;;;;;;5039916;28;20485;-71
2021/12/17 07:58:42;;;;;;;143.77;24.15;;;;;;;;;;5041529;28;20039;-70
2021/12/17 08:01:10;;;;;;;142.85;22.95;;;;;;;;;;5043671;28;20055;-70
2021/12/17 08:03:37;;;;;;;156.10;23.83;;;;;;;;;;5043076;28;20091;-71
2021/12/17 08:06:03;;;;;;;153.30;23.85;;;;;;;;;;5041647;28;20083;-70
2021/12/17 08:08:29;;;;;;;136.68;23.05;;;;;;;;;;5040286;28;20111;-72
2021/12/17 08:10:56;;;;;;;132.82;22.38;;;;;;;;;;5044584;28;20467;-70
2021/12/17 08:13:25;;;;;;;150.68;22.40;;;;;;;;;;5044874;28;20037;-72
2021/12/17 08:16:27;;;;;;;127.90;22.45;;;;;;;;;;5038585;28;20025;-71
2021/12/17 08:31:26;;;;;;;122.97;22.73;;;;;;;;;;5039442;28;20466;-73
2021/12/17 08:33:52;;;;;;;125.45;22.20;;;;;;;;;;5044464;28;20099;-71
2021/12/17 08:36:18;;;;;;;144.05;23.85;;;;;;;;;;5039023;28;20037;-71
2021/12/17 08:38:46;;;;;;;132.48;24.77;;;;;;;;;;5058123;28;20092;-71
2021/12/17 08:41:13;;;;;;;118.20;23.58;;;;;;;;;;5042916;28;20032;-71
2021/12/17 08:43:40;;;;;;;166.38;26.38;;;;;;;;;;5039322;28;20079;-70
2021/12/17 08:46:07;;;;;;;139.95;25.75;;;;;;;;;;5039819;28;20025;-70
2021/12/17 08:48:33;;;;;;;185.77;26.77;;;;;;;;;;5029912;28;20060;-70
2021/12/17 08:51:00;;;;;;;176.82;25.85;;;;;;;;;;5040498;28;20041;-69
2021/12/17 08:53:26;;;;;;;168.65;25.08;;;;;;;;;;5041896;28;20052;-69
2021/12/17 08:55:52;;;;;;;166.15;27.05;;;;;;;;;;5037832;28;20033;-70
2021/12/17 08:58:18;;;;;;;153.70;25.88;;;;;;;;;;5042213;28;20041;-70
2021/12/17 09:00:45;;;;;;;167.27;25.13;;;;;;;;;;5043586;28;20509;-71
2021/12/17 09:03:11;;;;;;;148.10;23.20;;;;;;;;;;5039188;28;20025;-69
2021/12/17 09:05:38;;;;;;;170.20;25.23;;;;;;;;;;5041691;28;20040;-71
2021/12/17 09:08:05;;;;;;;157.57;23.75;;;;;;;;;;5055811;28;20040;-71
2021/12/17 09:10:31;;;;;;;168.23;22.98;;;;;;;;;;5038728;28;20029;-71
2021/12/17 09:12:57;;;;;;;136.85;23.23;;;;;;;;;;5043735;28;20053;-70
2021/12/17 09:15:24;;;;;;;133.48;22.85;;;;;;;;;;5043611;28;20087;-71
2021/12/17 09:17:50;;;;;;;128.85;21.60;;;;;;;;;;5039461;28;20033;-71
2021/12/17 09:20:16;;;;;;;103.05;20.13;;;;;;;;;;5042224;28;20124;-71
2021/12/17 09:22:42;;;;;;;111.85;20.48;;;;;;;;;;5046428;28;20108;-71
2021/12/17 09:25:09;;;;;;;94.60;20.67;;;;;;;;;;5042985;28;20474;-71
2021/12/17 09:27:35;;;;;;;88.85;19.88;;;;;;;;;;5027830;28;20025;-71
2021/12/17 09:30:02;;;;;;;105.00;21.63;;;;;;;;;;5045519;28;20124;-71
2021/12/17 09:32:28;;;;;;;90.47;21.13;;;;;;;;;;5044109;28;20056;-71
2021/12/17 09:34:54;;;;;;;94.15;20.42;;;;;;;;;;5044980;28;20025;-71
2021/12/17 09:37:20;;;;;;;95.00;19.00;;;;;;;;;;5044583;28;20091;-71
2021/12/17 09:39:46;;;;;;;77.80;19.88;;;;;;;;;;5044429;28;20037;-71
2021/12/17 09:42:13;;;;;;;86.60;19.75;;;;;;;;;;5043150;28;20128;-70
2021/12/17 09:44:41;;;;;;;75.88;18.40;;;;;;;;;;5047602;28;20104;-71
2021/12/17 09:47:07;;;;;;;80.38;18.38;;;;;;;;;;5047143;28;20041;-72
2021/12/17 09:49:33;;;;;;;78.38;18.33;;;;;;;;;;5041403;28;20041;-70
2021/12/17 09:51:59;;;;;;;66.00;17.42;;;;;;;;;;5059438;28;20086;-71
2021/12/17 09:54:26;;;;;;;56.17;16.00;;;;;;;;;;5047122;28;20025;-70
2021/12/17 09:56:52;;;;;;;53.65;16.15;;;;;;;;;;5046613;28;20041;-71
2021/12/17 09:59:18;;;;;;;55.42;15.80;;;;;;;;;;5041013;28;20017;-71
2021/12/17 10:01:45;;;;;;;64.72;16.15;;;;;;;;;;5043857;28;20028;-72
2021/12/17 10:04:21;;;;;;;56.10;15.85;;;;;;;;;;5041569;28;20057;-70
2021/12/17 10:06:48;;;;;;;58.47;15.65;;;;;;;;;;5039062;28;20029;-72
2021/12/17 10:09:15;;;;;;;51.60;15.85;;;;;;;;;;5042227;28;20223;-72
2021/12/17 10:12:01;;;;;;;43.80;14.25;;;;;;;;;;5044319;28;20041;-70
2021/12/17 10:14:27;;;;;;;44.22;14.10;;;;;;;;;;5040728;28;20460;-71
2021/12/17 10:17:05;;;;;;;50.45;13.90;;;;;;;;;;5041354;28;20110;-71
2021/12/17 10:19:41;;;;;;;45.30;13.95;;;;;;;;;;5044693;28;20036;-70
2021/12/17 10:22:15;;;;;;;42.58;13.60;;;;;;;;;;5041115;28;20455;-72
2021/12/17 10:25:02;;;;;;;43.13;12.52;;;;;;;;;;5044167;28;20021;-70
2021/12/17 10:27:30;;;;;;;37.55;12.25;;;;;;;;;;5043410;28;20478;-70
2021/12/17 10:29:57;;;;;;;36.53;11.55;;;;;;;;;;5041157;28;20025;-70
2021/12/17 10:32:24;;;;;;;32.30;10.38;;;;;;;;;;5041647;28;20033;-71
2021/12/17 10:35:03;;;;;;;41.35;12.95;;;;;;;;;;5044500;28;20501;-71
2021/12/17 10:37:36;;;;;;;34.42;11.75;;;;;;;;;;5042074;28;20081;-71
2021/12/17 10:40:13;;;;;;;33.60;10.55;;;;;;;;;;5044117;28;20091;-71
2021/12/17 10:42:42;;;;;;;33.42;10.77;;;;;;;;;;5034129;28;20526;-73
2021/12/17 10:45:13;;;;;;;29.55;10.98;;;;;;;;;;5043295;28;20033;-71
2021/12/17 10:47:57;;;;;;;28.17;10.63;;;;;;;;;;5043734;28;20026;-71
2021/12/17 10:50:26;;;;;;;26.65;9.52;;;;;;;;;;5044851;28;20021;-72
2021/12/17 10:52:56;;;;;;;29.58;10.65;;;;;;;;;;5043897;28;20022;-72
2021/12/17 10:55:23;;;;;;;27.20;10.07;;;;;;;;;;5043018;28;20465;-70
2021/12/17 10:57:50;;;;;;;28.63;10.55;;;;;;;;;;5045661;28;20092;-72
2021/12/17 11:00:17;;;;;;;23.58;9.55;;;;;;;;;;5044705;28;20068;-72
2021/12/17 11:02:53;;;;;;;14.52;6.53;;;;;;;;;;5043133;28;20070;-72
2021/12/17 11:05:20;;;;;;;16.30;7.90;;;;;;;;;;5043636;28;20040;-70
2021/12/17 11:07:48;;;;;;;16.08;7.15;;;;;;;;;;5044464;28;20029;-70
2021/12/17 11:10:15;;;;;;;12.50;6.45;;;;;;;;;;5044437;28;20025;-71
2021/12/17 11:12:42;;;;;;;8.57;4.20;;;;;;;;;;5043897;28;20465;-71
2021/12/17 11:15:08;;;;;;;7.47;4.13;;;;;;;;;;5040656;28;20029;-71
2021/12/17 11:17:35;;;;;;;9.15;3.92;;;;;;;;;;5040325;28;20540;-70
2021/12/17 11:20:06;;;;;;;9.20;5.05;;;;;;;;;;5035822;28;20021;-71
2021/12/17 11:22:32;;;;;;;9.05;5.22;;;;;;;;;;5041892;28;20044;-70
2021/12/17 11:25:03;;;;;;;10.38;5.13;;;;;;;;;;5046335;28;20090;-70
2021/12/17 11:27:29;;;;;;;9.70;5.25;;;;;;;;;;5041990;28;20040;-71
2021/12/17 11:29:55;;;;;;;10.82;6.30;;;;;;;;;;5046589;28;20052;-71
2021/12/17 11:32:21;;;;;;;14.70;6.53;;;;;;;;;;5042414;28;20052;-71
2021/12/17 11:34:48;;;;;;;13.05;5.93;;;;;;;;;;5041959;28;20533;-71
2021/12/17 11:37:14;;;;;;;12.50;6.05;;;;;;;;;;5040398;28;20036;-71
2021/12/17 11:39:52;;;;;;;11.77;5.88;;;;;;;;;;5036837;28;20033;-71
2021/12/17 11:42:28;;;;;;;13.75;6.20;;;;;;;;;;5036365;28;20045;-70
2021/12/17 11:45:22;;;;;;;15.95;6.93;;;;;;;;;;5039518;28;20029;-71
2021/12/17 11:47:42;;;;;;;13.00;6.15;;;;;;;;;;5042325;28;20028;-70
2021/12/17 11:50:10;;;;;;;12.70;6.15;;;;;;;;;;5044827;28;20314;-71
2021/12/17 11:52:36;;;;;;;10.65;5.05;;;;;;;;;;5040393;28;20021;-71
2021/12/17 11:55:21;;;;;;;8.35;4.85;;;;;;;;;;5039473;28;20376;-70
2021/12/17 11:57:47;;;;;;;7.38;4.35;;;;;;;;;;5038612;28;20451;-71
2021/12/17 12:00:17;;;;;;;9.40;4.47;;;;;;;;;;5042815;28;20033;-72
2021/12/17 12:02:49;;;;;;;8.77;4.85;;;;;;;;;;5041266;28;20048;-72
2021/12/17 12:05:48;;;;;;;11.23;5.30;;;;;;;;;;5039826;28;20108;-71
2021/12/17 12:08:23;;;;;;;10.25;5.57;;;;;;;;;;5014512;28;20037;-71
2021/12/17 12:11:10;;;;;;;11.57;5.50;;;;;;;;;;5039389;28;20032;-71
2021/12/17 12:13:41;;;;;;;14.93;6.45;;;;;;;;;;5040424;28;20131;-72
2021/12/17 12:16:11;;;;;;;12.68;6.40;;;;;;;;;;5041218;28;20140;-71
2021/12/17 12:18:41;;;;;;;15.70;7.30;;;;;;;;;;5041052;28;20029;-71
2021/12/17 12:21:07;;;;;;;14.45;7.70;;;;;;;;;;5040486;28;20032;-71
2021/12/17 12:23:33;;;;;;;16.80;7.93;;;;;;;;;;5040610;28;20033;-71
2021/12/17 12:26:02;;;;;;;14.77;7.00;;;;;;;;;;5040239;28;20029;-71
2021/12/17 12:28:50;;;;;;;12.43;6.50;;;;;;;;;;5040721;28;20447;-72
2021/12/17 12:31:38;;;;;;;11.23;6.63;;;;;;;;;;5043955;28;20099;-71
2021/12/17 12:34:12;;;;;;;10.80;6.28;;;;;;;;;;5038826;28;20036;-71
2021/12/17 12:36:54;;;;;;;13.48;6.70;;;;;;;;;;5033871;28;20037;-73
2021/12/17 12:39:22;;;;;;;10.48;6.15;;;;;;;;;;5030445;28;20104;-73
2021/12/17 12:42:07;;;;;;;15.30;6.32;;;;;;;;;;5042787;28;20211;-73
2021/12/17 12:44:42;;;;;;;10.15;6.60;;;;;;;;;;5035863;28;20037;-73
2021/12/17 12:47:11;;;;;;;12.10;6.93;;;;;;;;;;5038224;28;20112;-72
2021/12/17 12:49:48;;;;;;;11.52;6.63;;;;;;;;;;5039512;28;20500;-72
2021/12/17 12:52:37;;;;;;;10.68;6.00;;;;;;;;;;5039129;28;20033;-73
2021/12/17 12:55:03;;;;;;;13.00;6.80;;;;;;;;;;5036048;28;20109;-72
2021/12/17 12:57:33;;;;;;;11.23;6.68;;;;;;;;;;5038963;28;20118;-72
2021/12/17 13:00:01;;;;;;;11.90;7.25;;;;;;;;;;5042819;28;20555;-73
2021/12/17 13:02:27;;;;;;;11.05;6.60;;;;;;;;;;5031607;28;20029;-72
2021/12/17 13:04:54;;;;;;;12.57;5.95;;;;;;;;;;5036993;28;20037;-72
2021/12/17 13:07:41;;;;;;;10.20;6.70;;;;;;;;;;5034629;28;20037;-72
2021/12/17 13:10:10;;;;;;;10.30;6.82;;;;;;;;;;5032426;28;20511;-72
2021/12/17 13:12:37;;;;;;;11.30;6.43;;;;;;;;;;5042295;28;20047;-72
2021/12/17 13:15:18;;;;;;;10.73;7.10;;;;;;;;;;5032842;28;20078;-72
2021/12/17 13:20:56;;;;;;;10.80;6.45;;;;;;;;;;5040133;28;20491;-74
2021/12/17 13:23:23;;;;;;;9.73;5.55;;;;;;;;;;5037436;28;20026;-72
2021/12/17 13:26:01;;;;;;;9.35;6.32;;;;;;;;;;5035958;28;20029;-74
2021/12/17 13:28:27;;;;;;;14.20;6.80;;;;;;;;;;5040666;28;20033;-74
2021/12/17 13:30:57;;;;;;;11.55;6.30;;;;;;;;;;5036096;28;20079;-72
2021/12/17 13:33:34;;;;;;;9.82;6.43;;;;;;;;;;5043149;28;20467;-72
2021/12/17 13:36:02;;;;;;;11.52;6.95;;;;;;;;;;5038345;28;20147;-72
2021/12/17 13:38:32;;;;;;;8.93;5.95;;;;;;;;;;5037898;28;20576;-73
2021/12/17 13:40:59;;;;;;;13.32;8.43;;;;;;;;;;5038814;28;20075;-73
2021/12/17 13:43:29;;;;;;;11.48;6.85;;;;;;;;;;5036736;28;20035;-72
2021/12/17 13:45:57;;;;;;;11.38;6.93;;;;;;;;;;5038477;28;20473;-72
2021/12/17 13:48:23;;;;;;;12.48;7.13;;;;;;;;;;5037926;28;20035;-72
2021/12/17 13:50:50;;;;;;;12.07;6.60;;;;;;;;;;5040710;28;20049;-72
2021/12/17 13:53:17;;;;;;;11.45;7.10;;;;;;;;;;5045375;28;20025;-72
2021/12/17 13:55:48;;;;;;;10.98;7.25;;;;;;;;;;5040389;28;20126;-72
2021/12/17 13:58:15;;;;;;;11.18;7.03;;;;;;;;;;5038843;28;20159;-73
2021/12/17 14:00:42;;;;;;;15.02;7.25;;;;;;;;;;5036114;28;20017;-73
2021/12/17 14:03:13;;;;;;;13.57;7.97;;;;;;;;;;5039180;28;20021;-73
2021/12/17 14:05:58;;;;;;;13.52;7.82;;;;;;;;;;5042896;28;20123;-73
2021/12/17 14:08:24;;;;;;;13.10;7.43;;;;;;;;;;5038526;28;20040;-73
2021/12/17 14:10:53;;;;;;;16.15;8.27;;;;;;;;;;5044288;28;20028;-73
2021/12/17 14:13:27;;;;;;;14.27;8.15;;;;;;;;;;5038915;28;20033;-73
2021/12/17 14:15:54;;;;;;;11.95;7.70;;;;;;;;;;5044416;28;20509;-73
2021/12/17 14:18:22;;;;;;;13.18;7.70;;;;;;;;;;5038555;28;20055;-74
2021/12/17 14:20:48;;;;;;;13.60;8.10;;;;;;;;;;5046069;28;20043;-73
2021/12/17 14:23:18;;;;;;;12.88;8.23;;;;;;;;;;5047338;28;20471;-72
2021/12/17 14:25:45;;;;;;;13.30;8.05;;;;;;;;;;5042362;28;20036;-72
2021/12/17 14:28:16;;;;;;;13.20;7.63;;;;;;;;;;5040074;28;20565;-73
2021/12/17 14:30:42;;;;;;;;;;;;;;;;;;5048511;28;20063;-72
2021/12/17 14:33:10;;;;;;;12.23;7.88;;;;;;;;;;5035860;28;19948;-72
2021/12/17 14:35:47;;;;;;;14.45;7.85;;;;;;;;;;5042211;28;20052;-72
2021/12/17 14:38:14;;;;;;;13.88;8.07;;;;;;;;;;5034362;28;20013;-72
2021/12/17 14:40:50;;;;;;;18.13;8.02;;;;;;;;;;5041013;28;20033;-72
2021/12/17 14:43:35;;;;;;;17.58;8.90;;;;;;;;;;5043149;28;20036;-73
2021/12/17 14:48:56;;;;;;;16.58;8.52;;;;;;;;;;5041138;28;20064;-72
2021/12/17 15:04:44;;;;;;;14.20;9.15;;;;;;;;;;5033572;28;20517;-72
2021/12/17 15:07:10;;;;;;;16.02;8.63;;;;;;;;;;5045267;28;20041;-72
2021/12/17 15:09:40;;;;;;;16.95;8.95;;;;;;;;;;5039750;28;20112;-72
2021/12/17 15:12:55;;;;;;;18.30;9.75;;;;;;;;;;5040841;28;20143;-72
2021/12/17 15:14:53;;;;;;;18.13;10.93;;;;;;;;;;5036882;28;20033;-71
2021/12/17 15:17:20;;;;;;;17.83;9.55;;;;;;;;;;5044265;28;20041;-72
2021/12/17 15:19:47;;;;;;;20.30;11.00;;;;;;;;;;5044100;28;20021;-72
2021/12/17 15:22:13;;;;;;;17.13;9.98;;;;;;;;;;5038241;28;20033;-72
2021/12/17 15:24:42;;;;;;;17.95;10.13;;;;;;;;;;5045807;28;20117;-72
2021/12/17 15:27:13;;;;;;;22.48;11.02;;;;;;;;;;5044350;28;20902;-73
2021/12/17 15:29:42;;;;;;;17.20;10.15;;;;;;;;;;5045927;28;20122;-73
2021/12/17 15:32:08;;;;;;;21.38;10.45;;;;;;;;;;5045888;28;20032;-73
2021/12/17 15:34:34;;;;;;;19.42;10.43;;;;;;;;;;5039282;28;20028;-73
2021/12/17 15:37:01;;;;;;;18.80;10.52;;;;;;;;;;5039092;28;20063;-73
2021/12/17 15:39:27;;;;;;;21.13;11.00;;;;;;;;;;5036699;28;20052;-72
2021/12/17 15:41:53;;;;;;;19.70;10.98;;;;;;;;;;5039378;28;20083;-73
2021/12/17 15:44:19;;;;;;;21.80;12.57;;;;;;;;;;5044119;28;20025;-73
2021/12/17 15:46:46;;;;;;;26.35;12.70;;;;;;;;;;5040182;28;20121;-72
2021/12/17 15:49:12;;;;;;;20.75;11.30;;;;;;;;;;5041879;28;20033;-73
2021/12/17 15:51:38;;;;;;;20.50;11.40;;;;;;;;;;5043522;28;20033;-73
2021/12/17 15:54:05;;;;;;;23.42;12.35;;;;;;;;;;5045253;28;20031;-73
2021/12/17 15:56:32;;;;;;;22.55;12.70;;;;;;;;;;5038764;28;20041;-72
2021/12/17 15:59:01;;;;;;;24.65;13.00;;;;;;;;;;5041208;28;20559;-73
2021/12/17 16:01:27;;;;;;;28.25;14.50;;;;;;;;;;5042000;28;20033;-73
2021/12/17 16:03:53;;;;;;;27.10;15.63;;;;;;;;;;5039540;28;20524;-73
2021/12/17 16:06:20;;;;;;;37.67;22.35;;;;;;;;;;5038761;28;20029;-73
2021/12/17 16:08:50;;;;;;;44.17;24.50;;;;;;;;;;5038077;28;20037;-74
2021/12/17 16:11:49;;;;;;;30.40;15.38;;;;;;;;;;5042659;28;20490;-73
2021/12/17 16:17:58;;;;;;;28.23;14.65;;;;;;;;;;5045205;28;20040;-73
2021/12/17 16:22:36;;;;;;;31.38;15.23;;;;;;;;;;5041089;28;20052;-72
2021/12/17 16:25:02;;;;;;;43.92;16.55;;;;;;;;;;5034889;28;20389;-72
2021/12/17 16:27:28;;;;;;;38.33;17.88;;;;;;;;;;5037346;28;20048;-72
2021/12/17 16:29:56;;;;;;;32.47;16.17;;;;;;;;;;5018220;28;20245;-72
2021/12/17 16:32:22;;;;;;;27.27;14.32;;;;;;;;;;5037823;28;20051;-72
2021/12/17 16:34:48;;;;;;;28.33;14.75;;;;;;;;;;5039452;28;20045;-72
2021/12/17 16:37:15;;;;;;;34.60;16.17;;;;;;;;;;5036807;28;20394;-72
2021/12/17 16:39:41;;;;;;;34.00;17.45;;;;;;;;;;5032094;28;20029;-72
2021/12/17 16:42:15;;;;;;;35.97;17.15;;;;;;;;;;5031069;28;20120;-72
2021/12/17 16:45:30;;;;;;;31.83;16.15;;;;;;;;;;5036693;28;20037;-72
2021/12/17 16:47:32;;;;;;;35.83;17.65;;;;;;;;;;5031960;28;20040;-72
2021/12/17 16:49:59;;;;;;;42.60;18.63;;;;;;;;;;5038397;28;20474;-72
2021/12/17 16:52:26;;;;;;;36.22;18.10;;;;;;;;;;5039199;28;20029;-72
2021/12/17 16:54:54;;;;;;;41.78;18.50;;;;;;;;;;5025178;28;20439;-72
2021/12/17 16:57:20;;;;;;;40.05;19.00;;;;;;;;;;5037099;28;20037;-72
2021/12/17 16:59:46;;;;;;;42.25;18.65;;;;;;;;;;5038232;28;20084;-72
2021/12/17 17:02:12;;;;;;;38.42;18.27;;;;;;;;;;5039075;28;20387;-72
2021/12/17 17:04:41;;;;;;;34.85;18.17;;;;;;;;;;5036507;28;20068;-72
2021/12/17 17:07:07;;;;;;;33.28;16.85;;;;;;;;;;5038329;28;20435;-72
2021/12/17 17:09:34;;;;;;;27.48;15.60;;;;;;;;;;5035969;28;20051;-72
2021/12/17 17:12:04;;;;;;;25.20;14.32;;;;;;;;;;5042486;28;20025;-74
2021/12/17 17:14:31;;;;;;;26.35;16.20;;;;;;;;;;5039309;28;20407;-74
2021/12/17 17:16:57;;;;;;;29.55;17.05;;;;;;;;;;5038523;28;20548;-74
2021/12/17 17:19:23;;;;;;;28.38;16.10;;;;;;;;;;5040202;28;20026;-74
2021/12/17 17:21:50;;;;;;;29.23;15.90;;;;;;;;;;5036894;28;20087;-73
2021/12/17 17:24:17;;;;;;;32.15;16.63;;;;;;;;;;5036453;28;20068;-74
2021/12/17 17:26:44;;;;;;;34.83;16.85;;;;;;;;;;5040304;28;20029;-74
2021/12/17 17:29:10;;;;;;;29.67;17.15;;;;;;;;;;5039308;28;20112;-75
2021/12/17 17:31:36;;;;;;;29.05;16.40;;;;;;;;;;5036605;28;20477;-74
2021/12/17 17:34:05;;;;;;;34.70;17.83;;;;;;;;;;5036472;28;20037;-74
2021/12/17 17:36:31;;;;;;;31.67;16.13;;;;;;;;;;5039495;28;20041;-74
2021/12/17 17:38:58;;;;;;;38.70;22.15;;;;;;;;;;5040899;28;20025;-75
2021/12/17 17:41:27;;;;;;;31.08;18.83;;;;;;;;;;5042065;28;20052;-75
2021/12/17 17:43:55;;;;;;;28.27;15.48;;;;;;;;;;5041781;28;20041;-74